sensor_id;sensor_type;location;lat;lon;timestamp;P1;durP1;ratioP1;P2;durP2;ratioP2
3085;SDS011;52812;48.960;9.108;2023-03-30T00:00:40;6.87;;;3.57;;
3085;SDS011;52812;48.960;9.108;2023-03-30T00:03:07;5.00;;;3.20;;
3085;SDS011;52812;48.960;9.108;2023-03-30T00:05:34;5.70;;;3.37;;
3085;SDS011;52812;48.960;9.108;2023-03-30T00:08:00;5.17;;;3.30;;
3085;SDS011;52812;48.960;9.108;2023-03-30T00:10:26;6.83;;;3.43;;
3085;SDS011;52812;48.960;9.108;2023-03-30T00:12:53;5.10;;;3.37;;
3085;SDS011;52812;48.960;9.108;2023-03-30T00:15:19;4.53;;;3.10;;
3085;SDS011;52812;48.960;9.108;2023-03-30T00:17:46;5.80;;;3.73;;
3085;SDS011;52812;48.960;9.108;2023-03-30T00:20:12;5.77;;;3.80;;
3085;SDS011;52812;48.960;9.108;2023-03-30T00:22:43;5.80;;;3.97;;
3085;SDS011;52812;48.960;9.108;2023-03-30T00:25:10;5.57;;;3.60;;
3085;SDS011;52812;48.960;9.108;2023-03-30T00:27:38;6.23;;;3.47;;
3085;SDS011;52812;48.960;9.108;2023-03-30T00:30:14;6.60;;;3.70;;
3085;SDS011;52812;48.960;9.108;2023-03-30T00:32:41;6.47;;;3.20;;
3085;SDS011;52812;48.960;9.108;2023-03-30T00:35:08;6.80;;;3.73;;
3085;SDS011;52812;48.960;9.108;2023-03-30T00:37:34;5.23;;;3.23;;
3085;SDS011;52812;48.960;9.108;2023-03-30T00:40:03;6.67;;;3.40;;
3085;SDS011;52812;48.960;9.108;2023-03-30T00:42:32;6.23;;;3.07;;
3085;SDS011;52812;48.960;9.108;2023-03-30T00:45:15;8.67;;;2.90;;
3085;SDS011;52812;48.960;9.108;2023-03-30T00:50:45;6.73;;;2.80;;
3085;SDS011;52812;48.960;9.108;2023-03-30T00:55:46;7.57;;;2.80;;
3085;SDS011;52812;48.960;9.108;2023-03-30T00:58:14;5.47;;;3.10;;
3085;SDS011;52812;48.960;9.108;2023-03-30T01:00:41;5.30;;;3.70;;
3085;SDS011;52812;48.960;9.108;2023-03-30T01:03:25;7.60;;;3.03;;
3085;SDS011;52812;48.960;9.108;2023-03-30T01:05:51;6.83;;;2.63;;
3085;SDS011;52812;48.960;9.108;2023-03-30T01:08:20;6.20;;;3.23;;
3085;SDS011;52812;48.960;9.108;2023-03-30T01:10:48;8.13;;;4.10;;
3085;SDS011;52812;48.960;9.108;2023-03-30T01:13:16;9.17;;;2.80;;
3085;SDS011;52812;48.960;9.108;2023-03-30T01:15:55;5.83;;;3.27;;
3085;SDS011;52812;48.960;9.108;2023-03-30T01:35:24;5.73;;;2.67;;
3085;SDS011;52812;48.960;9.108;2023-03-30T01:37:55;7.37;;;2.60;;
3085;SDS011;52812;48.960;9.108;2023-03-30T01:40:39;10.40;;;2.90;;
3085;SDS011;52812;48.960;9.108;2023-03-30T01:43:37;5.33;;;2.60;;
3085;SDS011;52812;48.960;9.108;2023-03-30T01:46:23;6.33;;;2.90;;
3085;SDS011;52812;48.960;9.108;2023-03-30T01:49:04;8.63;;;2.73;;
3085;SDS011;52812;48.960;9.108;2023-03-30T01:52:00;7.60;;;2.53;;
3085;SDS011;52812;48.960;9.108;2023-03-30T01:54:36;5.30;;;2.40;;
3085;SDS011;52812;48.960;9.108;2023-03-30T01:57:08;7.83;;;2.97;;
3085;SDS011;52812;48.960;9.108;2023-03-30T01:59:41;11.10;;;2.53;;
3085;SDS011;52812;48.960;9.108;2023-03-30T02:02:11;5.20;;;3.10;;
3085;SDS011;52812;48.960;9.108;2023-03-30T02:04:40;9.37;;;2.90;;
3085;SDS011;52812;48.960;9.108;2023-03-30T02:07:16;5.13;;;2.80;;
3085;SDS011;52812;48.960;9.108;2023-03-30T02:09:47;9.10;;;2.30;;
3085;SDS011;52812;48.960;9.108;2023-03-30T02:12:14;8.30;;;3.07;;
3085;SDS011;52812;48.960;9.108;2023-03-30T02:14:42;6.83;;;2.60;;
3085;SDS011;52812;48.960;9.108;2023-03-30T02:17:10;5.73;;;2.77;;
3085;SDS011;52812;48.960;9.108;2023-03-30T02:19:47;6.23;;;2.90;;
3085;SDS011;52812;48.960;9.108;2023-03-30T02:22:15;7.50;;;2.57;;
3085;SDS011;52812;48.960;9.108;2023-03-30T02:24:43;7.77;;;2.77;;
3085;SDS011;52812;48.960;9.108;2023-03-30T02:27:10;4.90;;;2.37;;
3085;SDS011;52812;48.960;9.108;2023-03-30T02:29:36;7.17;;;2.20;;
3085;SDS011;52812;48.960;9.108;2023-03-30T02:32:05;8.27;;;2.13;;
3085;SDS011;52812;48.960;9.108;2023-03-30T02:40:15;9.53;;;2.60;;
3085;SDS011;52812;48.960;9.108;2023-03-30T02:45:55;9.10;;;2.57;;
3085;SDS011;52812;48.960;9.108;2023-03-30T02:51:34;10.20;;;2.70;;
3085;SDS011;52812;48.960;9.108;2023-03-30T02:57:22;6.73;;;2.53;;
3085;SDS011;52812;48.960;9.108;2023-03-30T02:59:59;8.60;;;2.70;;
3085;SDS011;52812;48.960;9.108;2023-03-30T03:02:34;5.40;;;2.70;;
3085;SDS011;52812;48.960;9.108;2023-03-30T03:05:05;7.87;;;2.63;;
3085;SDS011;52812;48.960;9.108;2023-03-30T03:07:32;9.30;;;3.07;;
3085;SDS011;52812;48.960;9.108;2023-03-30T03:09:58;6.80;;;2.70;;
3085;SDS011;52812;48.960;9.108;2023-03-30T03:12:25;7.03;;;2.70;;
3085;SDS011;52812;48.960;9.108;2023-03-30T03:14:52;6.47;;;2.90;;
3085;SDS011;52812;48.960;9.108;2023-03-30T03:17:18;11.40;;;2.60;;
3085;SDS011;52812;48.960;9.108;2023-03-30T03:19:46;7.60;;;3.20;;
3085;SDS011;52812;48.960;9.108;2023-03-30T03:22:12;8.40;;;3.23;;
3085;SDS011;52812;48.960;9.108;2023-03-30T03:24:38;7.73;;;2.57;;
3085;SDS011;52812;48.960;9.108;2023-03-30T03:27:04;6.57;;;3.03;;
3085;SDS011;52812;48.960;9.108;2023-03-30T03:29:30;8.27;;;2.97;;
3085;SDS011;52812;48.960;9.108;2023-03-30T03:31:56;10.60;;;3.30;;
3085;SDS011;52812;48.960;9.108;2023-03-30T03:34:22;6.20;;;2.83;;
3085;SDS011;52812;48.960;9.108;2023-03-30T03:36:50;9.93;;;2.60;;
3085;SDS011;52812;48.960;9.108;2023-03-30T03:39:17;7.50;;;2.80;;
3085;SDS011;52812;48.960;9.108;2023-03-30T03:41:43;10.27;;;2.87;;
3085;SDS011;52812;48.960;9.108;2023-03-30T03:44:08;8.27;;;2.60;;
3085;SDS011;52812;48.960;9.108;2023-03-30T03:46:34;4.10;;;2.60;;
3085;SDS011;52812;48.960;9.108;2023-03-30T03:48:59;4.40;;;2.73;;
3085;SDS011;52812;48.960;9.108;2023-03-30T03:51:25;10.13;;;3.30;;
3085;SDS011;52812;48.960;9.108;2023-03-30T03:53:53;10.03;;;3.20;;
3085;SDS011;52812;48.960;9.108;2023-03-30T03:56:19;7.80;;;3.37;;
3085;SDS011;52812;48.960;9.108;2023-03-30T03:58:45;6.43;;;2.60;;
3085;SDS011;52812;48.960;9.108;2023-03-30T04:01:10;7.93;;;3.20;;
3085;SDS011;52812;48.960;9.108;2023-03-30T04:03:38;6.73;;;3.00;;
3085;SDS011;52812;48.960;9.108;2023-03-30T04:06:05;10.00;;;3.37;;
3085;SDS011;52812;48.960;9.108;2023-03-30T04:08:31;5.37;;;2.83;;
3085;SDS011;52812;48.960;9.108;2023-03-30T04:11:03;9.33;;;3.30;;
3085;SDS011;52812;48.960;9.108;2023-03-30T04:13:34;9.20;;;3.20;;
3085;SDS011;52812;48.960;9.108;2023-03-30T04:16:00;14.13;;;4.83;;
3085;SDS011;52812;48.960;9.108;2023-03-30T04:18:25;10.70;;;3.00;;
3085;SDS011;52812;48.960;9.108;2023-03-30T04:20:58;6.83;;;3.83;;
3085;SDS011;52812;48.960;9.108;2023-03-30T04:23:27;12.37;;;2.90;;
3085;SDS011;52812;48.960;9.108;2023-03-30T04:25:56;7.93;;;3.00;;
3085;SDS011;52812;48.960;9.108;2023-03-30T04:28:22;12.30;;;3.53;;
3085;SDS011;52812;48.960;9.108;2023-03-30T04:30:48;7.60;;;3.77;;
3085;SDS011;52812;48.960;9.108;2023-03-30T04:33:14;8.03;;;3.10;;
3085;SDS011;52812;48.960;9.108;2023-03-30T04:35:40;17.27;;;4.27;;
3085;SDS011;52812;48.960;9.108;2023-03-30T04:38:06;12.67;;;3.67;;
3085;SDS011;52812;48.960;9.108;2023-03-30T04:40:32;7.90;;;3.20;;
3085;SDS011;52812;48.960;9.108;2023-03-30T04:42:58;7.83;;;3.20;;
3085;SDS011;52812;48.960;9.108;2023-03-30T04:45:26;5.63;;;3.30;;
3085;SDS011;52812;48.960;9.108;2023-03-30T04:47:51;7.07;;;3.57;;
3085;SDS011;52812;48.960;9.108;2023-03-30T04:50:17;12.30;;;4.50;;
3085;SDS011;52812;48.960;9.108;2023-03-30T04:52:42;12.43;;;3.90;;
3085;SDS011;52812;48.960;9.108;2023-03-30T04:55:08;9.67;;;3.53;;
3085;SDS011;52812;48.960;9.108;2023-03-30T04:57:34;7.63;;;2.90;;
3085;SDS011;52812;48.960;9.108;2023-03-30T04:59:59;8.90;;;3.70;;
3085;SDS011;52812;48.960;9.108;2023-03-30T05:02:25;9.83;;;4.23;;
3085;SDS011;52812;48.960;9.108;2023-03-30T05:04:51;7.43;;;3.70;;
3085;SDS011;52812;48.960;9.108;2023-03-30T05:07:16;8.60;;;4.00;;
3085;SDS011;52812;48.960;9.108;2023-03-30T05:09:42;13.37;;;3.80;;
3085;SDS011;52812;48.960;9.108;2023-03-30T05:12:08;10.50;;;3.50;;
3085;SDS011;52812;48.960;9.108;2023-03-30T05:14:34;7.63;;;3.47;;
3085;SDS011;52812;48.960;9.108;2023-03-30T05:16:59;9.77;;;3.80;;
3085;SDS011;52812;48.960;9.108;2023-03-30T05:19:25;10.20;;;3.70;;
3085;SDS011;52812;48.960;9.108;2023-03-30T05:21:51;10.20;;;3.63;;
3085;SDS011;52812;48.960;9.108;2023-03-30T05:24:16;8.27;;;3.60;;
3085;SDS011;52812;48.960;9.108;2023-03-30T05:26:42;11.47;;;4.40;;
3085;SDS011;52812;48.960;9.108;2023-03-30T05:29:07;9.70;;;4.43;;
3085;SDS011;52812;48.960;9.108;2023-03-30T05:31:33;11.20;;;4.37;;
3085;SDS011;52812;48.960;9.108;2023-03-30T05:33:59;9.30;;;4.13;;
3085;SDS011;52812;48.960;9.108;2023-03-30T05:36:25;7.67;;;3.77;;
3085;SDS011;52812;48.960;9.108;2023-03-30T05:38:50;7.83;;;3.67;;
3085;SDS011;52812;48.960;9.108;2023-03-30T05:41:16;11.80;;;3.73;;
3085;SDS011;52812;48.960;9.108;2023-03-30T05:43:42;8.80;;;3.87;;
3085;SDS011;52812;48.960;9.108;2023-03-30T05:46:07;6.90;;;3.40;;
3085;SDS011;52812;48.960;9.108;2023-03-30T05:48:33;12.30;;;4.23;;
3085;SDS011;52812;48.960;9.108;2023-03-30T05:50:59;9.30;;;3.93;;
3085;SDS011;52812;48.960;9.108;2023-03-30T05:53:24;8.60;;;3.40;;
3085;SDS011;52812;48.960;9.108;2023-03-30T05:55:50;11.80;;;3.93;;
3085;SDS011;52812;48.960;9.108;2023-03-30T05:58:16;8.60;;;4.10;;
3085;SDS011;52812;48.960;9.108;2023-03-30T06:00:42;7.83;;;3.60;;
3085;SDS011;52812;48.960;9.108;2023-03-30T06:03:09;11.97;;;5.00;;
3085;SDS011;52812;48.960;9.108;2023-03-30T06:05:35;7.97;;;5.70;;
3085;SDS011;52812;48.960;9.108;2023-03-30T06:08:05;12.87;;;6.60;;
3085;SDS011;52812;48.960;9.108;2023-03-30T06:10:32;9.33;;;5.10;;
3085;SDS011;52812;48.960;9.108;2023-03-30T06:12:58;11.30;;;4.30;;
3085;SDS011;52812;48.960;9.108;2023-03-30T06:15:23;8.50;;;3.77;;
3085;SDS011;52812;48.960;9.108;2023-03-30T06:17:49;8.47;;;3.60;;
3085;SDS011;52812;48.960;9.108;2023-03-30T06:20:16;14.13;;;3.83;;
3085;SDS011;52812;48.960;9.108;2023-03-30T06:22:45;8.10;;;3.37;;
3085;SDS011;52812;48.960;9.108;2023-03-30T06:25:11;6.77;;;3.47;;
3085;SDS011;52812;48.960;9.108;2023-03-30T06:27:37;8.37;;;3.37;;
3085;SDS011;52812;48.960;9.108;2023-03-30T06:30:03;9.07;;;3.80;;
3085;SDS011;52812;48.960;9.108;2023-03-30T06:32:29;19.90;;;3.80;;
3085;SDS011;52812;48.960;9.108;2023-03-30T06:34:55;9.30;;;3.60;;
3085;SDS011;52812;48.960;9.108;2023-03-30T06:37:21;9.13;;;3.77;;
3085;SDS011;52812;48.960;9.108;2023-03-30T06:39:46;8.63;;;3.73;;
3085;SDS011;52812;48.960;9.108;2023-03-30T06:42:12;9.27;;;4.40;;
3085;SDS011;52812;48.960;9.108;2023-03-30T06:44:38;6.60;;;3.77;;
3085;SDS011;52812;48.960;9.108;2023-03-30T06:47:03;13.60;;;3.80;;
3085;SDS011;52812;48.960;9.108;2023-03-30T06:49:30;13.30;;;5.57;;
3085;SDS011;52812;48.960;9.108;2023-03-30T06:51:56;9.27;;;4.10;;
3085;SDS011;52812;48.960;9.108;2023-03-30T06:54:22;8.83;;;4.97;;
3085;SDS011;52812;48.960;9.108;2023-03-30T06:56:48;9.57;;;4.00;;
3085;SDS011;52812;48.960;9.108;2023-03-30T06:59:14;13.57;;;3.70;;
3085;SDS011;52812;48.960;9.108;2023-03-30T07:01:40;14.00;;;5.70;;
3085;SDS011;52812;48.960;9.108;2023-03-30T07:04:06;13.23;;;4.10;;
3085;SDS011;52812;48.960;9.108;2023-03-30T07:06:32;9.20;;;3.60;;
3085;SDS011;52812;48.960;9.108;2023-03-30T07:08:58;11.87;;;4.40;;
3085;SDS011;52812;48.960;9.108;2023-03-30T07:11:24;16.53;;;4.03;;
3085;SDS011;52812;48.960;9.108;2023-03-30T07:13:50;8.97;;;3.77;;
3085;SDS011;52812;48.960;9.108;2023-03-30T07:16:17;13.53;;;6.37;;
3085;SDS011;52812;48.960;9.108;2023-03-30T07:18:42;7.73;;;4.20;;
3085;SDS011;52812;48.960;9.108;2023-03-30T07:24:34;11.30;;;5.07;;
3085;SDS011;52812;48.960;9.108;2023-03-30T07:27:00;14.90;;;4.10;;
3085;SDS011;52812;48.960;9.108;2023-03-30T07:29:36;9.50;;;3.87;;
3085;SDS011;52812;48.960;9.108;2023-03-30T07:32:02;10.30;;;5.03;;
3085;SDS011;52812;48.960;9.108;2023-03-30T07:34:36;8.20;;;3.97;;
3085;SDS011;52812;48.960;9.108;2023-03-30T07:37:07;10.97;;;4.47;;
3085;SDS011;52812;48.960;9.108;2023-03-30T07:39:35;7.03;;;4.20;;
3085;SDS011;52812;48.960;9.108;2023-03-30T07:42:01;12.73;;;4.70;;
3085;SDS011;52812;48.960;9.108;2023-03-30T07:44:27;12.30;;;4.43;;
3085;SDS011;52812;48.960;9.108;2023-03-30T07:46:57;9.10;;;4.20;;
3085;SDS011;52812;48.960;9.108;2023-03-30T07:49:33;10.37;;;4.20;;
3085;SDS011;52812;48.960;9.108;2023-03-30T07:51:58;12.43;;;3.90;;
3085;SDS011;52812;48.960;9.108;2023-03-30T07:54:25;13.47;;;4.23;;
3085;SDS011;52812;48.960;9.108;2023-03-30T07:56:51;14.17;;;4.20;;
3085;SDS011;52812;48.960;9.108;2023-03-30T07:59:17;12.37;;;4.53;;
3085;SDS011;52812;48.960;9.108;2023-03-30T08:01:44;13.40;;;4.73;;
3085;SDS011;52812;48.960;9.108;2023-03-30T08:04:10;8.00;;;4.60;;
3085;SDS011;52812;48.960;9.108;2023-03-30T08:06:37;6.53;;;3.80;;
3085;SDS011;52812;48.960;9.108;2023-03-30T08:09:03;7.23;;;4.40;;
3085;SDS011;52812;48.960;9.108;2023-03-30T08:11:29;12.50;;;4.60;;
3085;SDS011;52812;48.960;9.108;2023-03-30T08:13:55;14.70;;;4.53;;
3085;SDS011;52812;48.960;9.108;2023-03-30T08:16:21;12.60;;;4.90;;
3085;SDS011;52812;48.960;9.108;2023-03-30T08:18:47;10.20;;;4.20;;
3085;SDS011;52812;48.960;9.108;2023-03-30T08:21:12;10.83;;;4.10;;
3085;SDS011;52812;48.960;9.108;2023-03-30T08:23:38;9.30;;;4.50;;
3085;SDS011;52812;48.960;9.108;2023-03-30T08:26:04;8.37;;;3.60;;
3085;SDS011;52812;48.960;9.108;2023-03-30T08:28:30;9.17;;;3.83;;
3085;SDS011;52812;48.960;9.108;2023-03-30T08:31:01;5.87;;;3.70;;
3085;SDS011;52812;48.960;9.108;2023-03-30T08:33:28;6.50;;;3.70;;
3085;SDS011;52812;48.960;9.108;2023-03-30T08:35:53;6.37;;;3.37;;
3085;SDS011;52812;48.960;9.108;2023-03-30T08:38:19;7.40;;;4.03;;
3085;SDS011;52812;48.960;9.108;2023-03-30T08:40:45;9.17;;;4.13;;
3085;SDS011;52812;48.960;9.108;2023-03-30T08:43:19;7.80;;;3.57;;
3085;SDS011;52812;48.960;9.108;2023-03-30T08:45:59;9.43;;;3.60;;
3085;SDS011;52812;48.960;9.108;2023-03-30T08:48:27;12.57;;;3.50;;
3085;SDS011;52812;48.960;9.108;2023-03-30T08:51:10;7.17;;;3.90;;
3085;SDS011;52812;48.960;9.108;2023-03-30T08:53:55;5.80;;;3.23;;
3085;SDS011;52812;48.960;9.108;2023-03-30T08:56:26;6.43;;;3.70;;
3085;SDS011;52812;48.960;9.108;2023-03-30T08:59:16;7.10;;;3.70;;
3085;SDS011;52812;48.960;9.108;2023-03-30T09:01:56;8.20;;;3.80;;
3085;SDS011;52812;48.960;9.108;2023-03-30T09:04:47;6.30;;;3.83;;
3085;SDS011;52812;48.960;9.108;2023-03-30T09:07:26;8.20;;;4.00;;
3085;SDS011;52812;48.960;9.108;2023-03-30T09:13:38;7.17;;;3.37;;
3085;SDS011;52812;48.960;9.108;2023-03-30T09:19:11;8.90;;;3.30;;
3085;SDS011;52812;48.960;9.108;2023-03-30T09:24:46;5.50;;;2.97;;
3085;SDS011;52812;48.960;9.108;2023-03-30T09:30:36;6.30;;;3.40;;
3085;SDS011;52812;48.960;9.108;2023-03-30T09:36:12;3.13;;;2.83;;
3085;SDS011;52812;48.960;9.108;2023-03-30T09:38:44;6.97;;;2.80;;
3085;SDS011;52812;48.960;9.108;2023-03-30T09:41:19;4.30;;;2.90;;
3085;SDS011;52812;48.960;9.108;2023-03-30T09:44:06;5.27;;;3.17;;
3085;SDS011;52812;48.960;9.108;2023-03-30T09:46:43;4.83;;;3.13;;
3085;SDS011;52812;48.960;9.108;2023-03-30T09:51:55;4.53;;;3.00;;
3085;SDS011;52812;48.960;9.108;2023-03-30T09:58:36;6.27;;;3.07;;
3085;SDS011;52812;48.960;9.108;2023-03-30T10:00:45;7.73;;;3.23;;
3085;SDS011;52812;48.960;9.108;2023-03-30T10:03:25;7.20;;;3.70;;
3085;SDS011;52812;48.960;9.108;2023-03-30T10:06:08;5.50;;;3.07;;
3085;SDS011;52812;48.960;9.108;2023-03-30T10:08:42;5.70;;;3.03;;
3085;SDS011;52812;48.960;9.108;2023-03-30T10:11:18;5.87;;;5.27;;
3085;SDS011;52812;48.960;9.108;2023-03-30T10:13:45;5.90;;;3.93;;
3085;SDS011;52812;48.960;9.108;2023-03-30T10:16:20;3.90;;;3.23;;
3085;SDS011;52812;48.960;9.108;2023-03-30T10:18:51;5.73;;;3.27;;
3085;SDS011;52812;48.960;9.108;2023-03-30T10:21:19;6.23;;;3.30;;
3085;SDS011;52812;48.960;9.108;2023-03-30T10:24:25;5.67;;;3.33;;
3085;SDS011;52812;48.960;9.108;2023-03-30T10:26:49;3.80;;;2.97;;
3085;SDS011;52812;48.960;9.108;2023-03-30T10:29:17;4.40;;;2.97;;
3085;SDS011;52812;48.960;9.108;2023-03-30T10:31:47;6.27;;;3.20;;
3085;SDS011;52812;48.960;9.108;2023-03-30T10:34:30;6.20;;;3.20;;
3085;SDS011;52812;48.960;9.108;2023-03-30T10:37:05;4.30;;;2.93;;
3085;SDS011;52812;48.960;9.108;2023-03-30T10:39:34;4.57;;;3.40;;
3085;SDS011;52812;48.960;9.108;2023-03-30T10:42:04;4.63;;;3.00;;
3085;SDS011;52812;48.960;9.108;2023-03-30T10:44:40;6.13;;;3.00;;
3085;SDS011;52812;48.960;9.108;2023-03-30T11:03:24;5.37;;;2.90;;
3085;SDS011;52812;48.960;9.108;2023-03-30T11:05:55;4.27;;;2.73;;
3085;SDS011;52812;48.960;9.108;2023-03-30T11:08:28;4.43;;;3.10;;
3085;SDS011;52812;48.960;9.108;2023-03-30T11:10:59;3.17;;;2.87;;
3085;SDS011;52812;48.960;9.108;2023-03-30T11:13:44;4.63;;;2.70;;
3085;SDS011;52812;48.960;9.108;2023-03-30T11:16:17;6.13;;;2.90;;
3085;SDS011;52812;48.960;9.108;2023-03-30T11:21:29;3.20;;;2.87;;
3085;SDS011;52812;48.960;9.108;2023-03-30T11:23:58;4.33;;;2.80;;
3085;SDS011;52812;48.960;9.108;2023-03-30T11:34:15;5.80;;;2.80;;
3085;SDS011;52812;48.960;9.108;2023-03-30T11:39:46;6.73;;;4.43;;
3085;SDS011;52812;48.960;9.108;2023-03-30T11:42:20;2.97;;;2.60;;
3085;SDS011;52812;48.960;9.108;2023-03-30T11:44:50;4.20;;;3.03;;
3085;SDS011;52812;48.960;9.108;2023-03-30T12:04:38;5.10;;;2.93;;
3085;SDS011;52812;48.960;9.108;2023-03-30T12:07:31;3.50;;;2.80;;
3085;SDS011;52812;48.960;9.108;2023-03-30T12:10:31;3.57;;;3.07;;
3085;SDS011;52812;48.960;9.108;2023-03-30T12:13:15;4.23;;;2.70;;
3085;SDS011;52812;48.960;9.108;2023-03-30T12:15:44;3.53;;;2.20;;
3085;SDS011;52812;48.960;9.108;2023-03-30T12:26:29;4.60;;;2.70;;
3085;SDS011;52812;48.960;9.108;2023-03-30T12:29:06;5.40;;;2.80;;
3085;SDS011;52812;48.960;9.108;2023-03-30T12:34:25;4.70;;;2.40;;
3085;SDS011;52812;48.960;9.108;2023-03-30T12:36:52;4.03;;;2.70;;
3085;SDS011;52812;48.960;9.108;2023-03-30T12:39:30;3.73;;;2.70;;
3085;SDS011;52812;48.960;9.108;2023-03-30T12:42:02;3.47;;;2.40;;
3085;SDS011;52812;48.960;9.108;2023-03-30T12:44:36;3.20;;;2.50;;
3085;SDS011;52812;48.960;9.108;2023-03-30T12:53:01;2.90;;;2.30;;
3085;SDS011;52812;48.960;9.108;2023-03-30T12:58:23;3.53;;;2.10;;
3085;SDS011;52812;48.960;9.108;2023-03-30T13:01:08;7.30;;;2.37;;
3085;SDS011;52812;48.960;9.108;2023-03-30T13:06:23;3.53;;;2.47;;
3085;SDS011;52812;48.960;9.108;2023-03-30T13:08:56;2.97;;;2.10;;
3085;SDS011;52812;48.960;9.108;2023-03-30T13:11:42;3.83;;;2.50;;
3085;SDS011;52812;48.960;9.108;2023-03-30T13:24:43;2.70;;;2.30;;
3085;SDS011;52812;48.960;9.108;2023-03-30T13:29:51;3.93;;;2.50;;
3085;SDS011;52812;48.960;9.108;2023-03-30T13:32:26;5.50;;;2.87;;
3085;SDS011;52812;48.960;9.108;2023-03-30T13:37:48;5.93;;;2.20;;
3085;SDS011;52812;48.960;9.108;2023-03-30T13:45:47;4.13;;;2.20;;
3085;SDS011;52812;48.960;9.108;2023-03-30T13:48:34;3.33;;;2.20;;
3085;SDS011;52812;48.960;9.108;2023-03-30T13:51:13;4.13;;;2.23;;
3085;SDS011;52812;48.960;9.108;2023-03-30T13:53:41;5.33;;;2.57;;
3085;SDS011;52812;48.960;9.108;2023-03-30T13:56:13;3.57;;;2.27;;
3085;SDS011;52812;48.960;9.108;2023-03-30T13:58:39;5.00;;;2.50;;
3085;SDS011;52812;48.960;9.108;2023-03-30T14:01:12;3.93;;;2.30;;
3085;SDS011;52812;48.960;9.108;2023-03-30T14:03:41;3.77;;;2.20;;
3085;SDS011;52812;48.960;9.108;2023-03-30T14:08:39;3.90;;;2.57;;
3085;SDS011;52812;48.960;9.108;2023-03-30T14:11:09;3.33;;;2.30;;
3085;SDS011;52812;48.960;9.108;2023-03-30T14:13:41;4.90;;;2.60;;
3085;SDS011;52812;48.960;9.108;2023-03-30T14:16:08;3.83;;;2.70;;
3085;SDS011;52812;48.960;9.108;2023-03-30T14:18:37;4.67;;;2.50;;
3085;SDS011;52812;48.960;9.108;2023-03-30T14:21:03;5.60;;;2.57;;
3085;SDS011;52812;48.960;9.108;2023-03-30T14:23:36;4.90;;;3.10;;
3085;SDS011;52812;48.960;9.108;2023-03-30T14:26:10;4.50;;;3.17;;
3085;SDS011;52812;48.960;9.108;2023-03-30T14:28:55;4.73;;;2.93;;
3085;SDS011;52812;48.960;9.108;2023-03-30T14:31:22;5.37;;;3.20;;
3085;SDS011;52812;48.960;9.108;2023-03-30T14:33:51;3.80;;;2.60;;
3085;SDS011;52812;48.960;9.108;2023-03-30T14:36:17;4.90;;;2.90;;
3085;SDS011;52812;48.960;9.108;2023-03-30T14:38:46;4.00;;;2.03;;
3085;SDS011;52812;48.960;9.108;2023-03-30T14:41:25;2.40;;;2.20;;
3085;SDS011;52812;48.960;9.108;2023-03-30T14:44:02;4.60;;;2.57;;
3085;SDS011;52812;48.960;9.108;2023-03-30T14:46:36;2.83;;;2.37;;
3085;SDS011;52812;48.960;9.108;2023-03-30T14:49:07;4.17;;;2.23;;
3085;SDS011;52812;48.960;9.108;2023-03-30T14:51:45;6.00;;;2.93;;
3085;SDS011;52812;48.960;9.108;2023-03-30T14:54:16;3.27;;;2.40;;
3085;SDS011;52812;48.960;9.108;2023-03-30T14:56:49;5.10;;;2.30;;
3085;SDS011;52812;48.960;9.108;2023-03-30T14:59:20;2.67;;;2.03;;
3085;SDS011;52812;48.960;9.108;2023-03-30T15:01:46;5.17;;;2.50;;
3085;SDS011;52812;48.960;9.108;2023-03-30T15:04:13;4.00;;;2.50;;
3085;SDS011;52812;48.960;9.108;2023-03-30T15:06:40;2.50;;;2.13;;
3085;SDS011;52812;48.960;9.108;2023-03-30T15:09:11;3.47;;;2.00;;
3085;SDS011;52812;48.960;9.108;2023-03-30T15:11:42;3.67;;;2.20;;
3085;SDS011;52812;48.960;9.108;2023-03-30T15:14:12;3.60;;;2.30;;
3085;SDS011;52812;48.960;9.108;2023-03-30T15:16:41;3.53;;;2.30;;
3085;SDS011;52812;48.960;9.108;2023-03-30T15:19:10;3.80;;;2.33;;
3085;SDS011;52812;48.960;9.108;2023-03-30T15:21:38;2.80;;;2.23;;
3085;SDS011;52812;48.960;9.108;2023-03-30T15:24:05;3.07;;;2.20;;
3085;SDS011;52812;48.960;9.108;2023-03-30T15:26:33;2.80;;;1.97;;
3085;SDS011;52812;48.960;9.108;2023-03-30T15:29:01;3.87;;;2.00;;
3085;SDS011;52812;48.960;9.108;2023-03-30T15:31:28;4.30;;;2.30;;
3085;SDS011;52812;48.960;9.108;2023-03-30T15:33:55;6.80;;;3.00;;
3085;SDS011;52812;48.960;9.108;2023-03-30T15:36:35;3.53;;;2.43;;
3085;SDS011;52812;48.960;9.108;2023-03-30T15:39:02;4.97;;;2.67;;
3085;SDS011;52812;48.960;9.108;2023-03-30T15:41:43;5.10;;;2.27;;
3085;SDS011;52812;48.960;9.108;2023-03-30T15:44:37;2.93;;;2.30;;
3085;SDS011;52812;48.960;9.108;2023-03-30T15:47:11;5.23;;;2.13;;
3085;SDS011;52812;48.960;9.108;2023-03-30T15:49:45;3.77;;;2.60;;
3085;SDS011;52812;48.960;9.108;2023-03-30T15:52:33;5.03;;;2.90;;
3085;SDS011;52812;48.960;9.108;2023-03-30T15:55:04;4.73;;;2.27;;
3085;SDS011;52812;48.960;9.108;2023-03-30T15:57:32;3.07;;;2.17;;
3085;SDS011;52812;48.960;9.108;2023-03-30T16:00:00;3.90;;;2.23;;
3085;SDS011;52812;48.960;9.108;2023-03-30T16:02:40;2.20;;;1.83;;
3085;SDS011;52812;48.960;9.108;2023-03-30T16:05:16;1.70;;;1.60;;
3085;SDS011;52812;48.960;9.108;2023-03-30T16:07:46;2.53;;;1.67;;
3085;SDS011;52812;48.960;9.108;2023-03-30T16:10:12;1.93;;;1.70;;
3085;SDS011;52812;48.960;9.108;2023-03-30T16:12:42;3.77;;;1.70;;
3085;SDS011;52812;48.960;9.108;2023-03-30T16:15:14;3.67;;;1.70;;
3085;SDS011;52812;48.960;9.108;2023-03-30T16:21:12;3.30;;;1.80;;
3085;SDS011;52812;48.960;9.108;2023-03-30T16:24:36;1.73;;;1.60;;
3085;SDS011;52812;48.960;9.108;2023-03-30T16:34:09;2.07;;;1.50;;
3085;SDS011;52812;48.960;9.108;2023-03-30T16:36:45;2.07;;;1.70;;
3085;SDS011;52812;48.960;9.108;2023-03-30T16:40:59;2.90;;;1.80;;
3085;SDS011;52812;48.960;9.108;2023-03-30T16:47:15;2.10;;;1.73;;
3085;SDS011;52812;48.960;9.108;2023-03-30T16:50:21;2.23;;;1.80;;
3085;SDS011;52812;48.960;9.108;2023-03-30T16:52:50;3.73;;;1.90;;
3085;SDS011;52812;48.960;9.108;2023-03-30T16:55:16;1.57;;;1.40;;
3085;SDS011;52812;48.960;9.108;2023-03-30T16:57:42;2.50;;;1.77;;
3085;SDS011;52812;48.960;9.108;2023-03-30T17:00:12;3.17;;;1.73;;
3085;SDS011;52812;48.960;9.108;2023-03-30T17:02:42;4.27;;;1.60;;
3085;SDS011;52812;48.960;9.108;2023-03-30T17:05:09;1.80;;;1.50;;
3085;SDS011;52812;48.960;9.108;2023-03-30T17:07:35;1.80;;;1.53;;
3085;SDS011;52812;48.960;9.108;2023-03-30T17:10:08;2.60;;;1.60;;
3085;SDS011;52812;48.960;9.108;2023-03-30T17:12:42;3.07;;;1.40;;
3085;SDS011;52812;48.960;9.108;2023-03-30T17:15:07;2.43;;;1.77;;
3085;SDS011;52812;48.960;9.108;2023-03-30T17:17:33;2.50;;;1.30;;
3085;SDS011;52812;48.960;9.108;2023-03-30T17:20:00;2.43;;;1.30;;
3085;SDS011;52812;48.960;9.108;2023-03-30T17:22:42;2.50;;;1.50;;
3085;SDS011;52812;48.960;9.108;2023-03-30T17:25:07;2.30;;;1.43;;
3085;SDS011;52812;48.960;9.108;2023-03-30T17:27:33;1.90;;;1.40;;
3085;SDS011;52812;48.960;9.108;2023-03-30T17:30:00;3.07;;;1.40;;
3085;SDS011;52812;48.960;9.108;2023-03-30T17:32:28;4.40;;;1.77;;
3085;SDS011;52812;48.960;9.108;2023-03-30T17:34:54;2.20;;;1.60;;
3085;SDS011;52812;48.960;9.108;2023-03-30T17:37:19;2.80;;;1.70;;
3085;SDS011;52812;48.960;9.108;2023-03-30T17:39:45;2.07;;;1.40;;
3085;SDS011;52812;48.960;9.108;2023-03-30T17:42:11;3.73;;;1.70;;
3085;SDS011;52812;48.960;9.108;2023-03-30T17:44:37;2.10;;;1.40;;
3085;SDS011;52812;48.960;9.108;2023-03-30T17:47:02;2.77;;;1.33;;
3085;SDS011;52812;48.960;9.108;2023-03-30T17:49:28;2.77;;;1.47;;
3085;SDS011;52812;48.960;9.108;2023-03-30T17:51:53;1.60;;;1.40;;
3085;SDS011;52812;48.960;9.108;2023-03-30T17:54:19;1.80;;;1.60;;
3085;SDS011;52812;48.960;9.108;2023-03-30T17:56:47;2.90;;;1.70;;
3085;SDS011;52812;48.960;9.108;2023-03-30T17:59:13;3.30;;;1.90;;
3085;SDS011;52812;48.960;9.108;2023-03-30T18:01:39;3.23;;;2.00;;
3085;SDS011;52812;48.960;9.108;2023-03-30T18:04:05;3.17;;;1.60;;
3085;SDS011;52812;48.960;9.108;2023-03-30T18:06:30;5.43;;;1.73;;
3085;SDS011;52812;48.960;9.108;2023-03-30T18:08:56;3.77;;;2.07;;
3085;SDS011;52812;48.960;9.108;2023-03-30T18:11:22;2.83;;;1.80;;